Terminal Aerodrome Forecast
Issued by NWS

Home | Current Version | Previous Version | Text Only | Print | Product List | Glossary On
Versions: 1 2 3 4 5 6 7 8 9 10 11 12 13 14 15 16 17 18
000
FTUS43 KFGF 271700
TAFDVL
TAF
KDVL 271720Z 2718/2818 17015KT 2SM -SN OVC012
      TEMPO 2718/2722 1SM -SN
     FM272200 17013KT 5SM -SN BKN015
     FM272300 16013KT P6SM BKN020
     FM281000 17012KT P6SM BKN250
     FM281500 18015G22KT P6SM FEW250
      AMD LTD TO CLD VIS AND WIND=

USA.gov is the U.S. government's official web portal to all federal, state and local government web resources and services.